createdAt,value
2022-10-01T00:01:16.213Z,60.88
2022-10-01T00:03:43.444Z,60.97
2022-10-01T00:06:20.000Z,60.42
2022-10-01T00:08:49.128Z,60.54
2022-10-01T00:11:21.427Z,61.05
2022-10-01T00:13:48.533Z,60.63
2022-10-01T00:16:18.811Z,60.58
2022-10-01T00:18:47.243Z,60.81
2022-10-01T00:21:17.043Z,60.81
2022-10-01T00:23:43.470Z,61.08
2022-10-01T00:26:18.607Z,61.34
2022-10-01T00:28:47.516Z,61.36
2022-10-01T00:31:15.884Z,61.67
2022-10-01T00:33:42.931Z,61.49
2022-10-01T00:36:10.793Z,61.35
2022-10-01T00:38:40.232Z,61.29
2022-10-01T00:41:07.571Z,61.33
2022-10-01T00:43:37.577Z,61.01
2022-10-01T00:46:13.366Z,61.03
2022-10-01T00:48:50.100Z,61.35
2022-10-01T00:51:16.536Z,60.67
2022-10-01T00:53:44.610Z,61.08
2022-10-01T00:56:11.078Z,61.44
2022-10-01T00:58:38.495Z,61.26
2022-10-01T01:01:05.396Z,61.31
2022-10-01T01:03:31.768Z,61.24
2022-10-01T01:05:58.214Z,61.48
2022-10-01T01:08:24.697Z,61.30
2022-10-01T01:11:07.056Z,61.67
2022-10-01T01:13:42.816Z,61.86
2022-10-01T01:16:18.726Z,61.84
2022-10-01T01:19:02.437Z,61.67
2022-10-01T01:21:52.396Z,61.57
2022-10-01T01:24:33.192Z,61.70
2022-10-01T01:27:37.699Z,61.81
2022-10-01T01:30:16.681Z,61.66
2022-10-01T01:33:04.725Z,61.63
2022-10-01T01:35:35.549Z,61.45
2022-10-01T01:38:16.583Z,61.65
2022-10-01T01:40:46.556Z,62.01
2022-10-01T01:43:20.533Z,61.67
2022-10-01T01:45:55.184Z,61.63
2022-10-01T01:48:23.869Z,61.60
2022-10-01T01:50:58.740Z,62.13
2022-10-01T01:53:26.121Z,61.99
2022-10-01T01:55:53.260Z,62.59
2022-10-01T01:58:20.087Z,62.62
2022-10-01T02:00:52.255Z,62.51
2022-10-01T02:03:25.788Z,62.89
2022-10-01T02:06:10.839Z,62.91
2022-10-01T02:08:57.262Z,62.72
2022-10-01T02:11:38.036Z,62.21
2022-10-01T02:14:19.031Z,62.20
2022-10-01T02:16:55.930Z,62.04
2022-10-01T02:19:37.154Z,62.06
2022-10-01T02:22:13.059Z,62.06
2022-10-01T02:24:51.142Z,61.91
2022-10-01T02:27:28.697Z,62.02
2022-10-01T02:29:59.020Z,61.89
2022-10-01T02:32:28.776Z,61.72
2022-10-01T02:34:55.184Z,61.52
2022-10-01T02:37:25.297Z,61.36
2022-10-01T02:39:54.592Z,61.83
2022-10-01T02:42:23.724Z,62.08
2022-10-01T02:44:52.433Z,62.26
2022-10-01T02:47:24.969Z,61.88
2022-10-01T02:49:52.898Z,62.14
2022-10-01T02:52:37.169Z,61.87
2022-10-01T02:55:35.248Z,62.14
2022-10-01T02:58:01.784Z,61.94
2022-10-01T03:00:28.596Z,62.10
2022-10-01T03:02:55.072Z,62.44
2022-10-01T03:05:21.734Z,62.93
2022-10-01T03:07:48.644Z,62.46
2022-10-01T03:10:16.037Z,62.52
2022-10-01T03:12:46.542Z,62.51
2022-10-01T03:15:15.401Z,62.67
2022-10-01T03:17:41.855Z,62.61
2022-10-01T03:20:08.969Z,62.18
2022-10-01T03:22:35.548Z,62.65
2022-10-01T03:25:01.879Z,62.88
2022-10-01T03:27:28.400Z,63.32
2022-10-01T03:29:54.844Z,61.80
2022-10-01T03:32:21.236Z,61.91
2022-10-01T03:34:48.005Z,62.07
2022-10-01T03:37:14.435Z,61.75
2022-10-01T03:39:40.884Z,62.10
2022-10-01T03:42:07.320Z,62.59
2022-10-01T03:44:34.041Z,61.96
2022-10-01T03:47:00.697Z,61.64
2022-10-01T03:49:27.783Z,61.58
2022-10-01T03:51:54.179Z,62.54
2022-10-01T03:54:21.221Z,61.64
2022-10-01T03:56:48.750Z,61.93
2022-10-01T03:59:15.324Z,61.75
2022-10-01T04:01:41.895Z,62.78
2022-10-01T04:04:08.344Z,62.07
2022-10-01T04:06:34.834Z,62.69
2022-10-01T04:09:01.576Z,63.09
2022-10-01T04:11:28.034Z,63.46
2022-10-01T04:13:54.520Z,64.29
2022-10-01T04:16:21.027Z,65.22
2022-10-01T04:18:47.545Z,66.30
2022-10-01T04:21:15.486Z,66.92
2022-10-01T04:23:42.251Z,66.80
2022-10-01T04:26:09.295Z,67.64
2022-10-01T04:28:36.225Z,67.37
2022-10-01T04:31:21.539Z,68.09
2022-10-01T04:33:48.017Z,68.31
2022-10-01T04:36:14.634Z,68.51
2022-10-01T04:38:41.031Z,68.73
2022-10-01T04:41:08.876Z,69.32
2022-10-01T04:43:35.504Z,69.68
2022-10-01T04:46:01.976Z,70.17
2022-10-01T04:48:28.503Z,70.23
2022-10-01T04:50:54.898Z,70.02
2022-10-01T04:53:21.344Z,71.22
2022-10-01T04:55:47.772Z,70.90
2022-10-01T04:58:14.227Z,71.44
2022-10-01T05:00:40.989Z,70.99
2022-10-01T05:03:07.453Z,71.17
2022-10-01T05:05:35.090Z,71.31
2022-10-01T05:08:02.082Z,71.48
2022-10-01T05:10:29.078Z,71.52
2022-10-01T05:12:55.520Z,71.42
2022-10-01T05:15:21.954Z,71.72
2022-10-01T05:17:48.382Z,72.69
2022-10-01T05:20:20.062Z,72.85
2022-10-01T05:22:47.358Z,72.79
2022-10-01T05:25:14.368Z,72.94
2022-10-01T05:27:41.085Z,73.18
2022-10-01T05:30:10.403Z,73.95
2022-10-01T05:32:37.790Z,74.38
2022-10-01T05:35:05.455Z,73.72
2022-10-01T05:37:31.895Z,74.98
2022-10-01T05:39:58.236Z,74.79
2022-10-01T05:42:24.801Z,76.37
2022-10-01T05:44:51.202Z,77.11
2022-10-01T05:47:18.316Z,77.63
2022-10-01T05:49:44.790Z,78.14
2022-10-01T05:52:12.636Z,78.02
2022-10-01T05:54:39.197Z,78.62
2022-10-01T05:57:06.247Z,79.28
2022-10-01T05:59:32.645Z,80.04
2022-10-01T06:01:59.143Z,80.43
2022-10-01T06:04:25.650Z,80.39
2022-10-01T06:06:53.920Z,80.72
2022-10-01T06:09:20.256Z,81.62
2022-10-01T06:11:48.837Z,81.61
2022-10-01T06:14:15.781Z,81.89
2022-10-01T06:16:42.312Z,82.56
2022-10-01T06:19:08.716Z,82.82
2022-10-01T06:21:36.145Z,83.89
2022-10-01T06:24:02.800Z,84.47
2022-10-01T06:26:29.274Z,85.25
2022-10-01T06:28:56.545Z,85.24
2022-10-01T06:31:24.157Z,85.73
2022-10-01T06:33:50.556Z,86.06
2022-10-01T06:36:16.951Z,85.82
2022-10-01T06:38:43.628Z,86.52
2022-10-01T06:41:10.558Z,86.05
2022-10-01T06:43:36.896Z,85.84
2022-10-01T06:46:04.867Z,86.72
2022-10-01T06:48:32.358Z,87.14
2022-10-01T06:50:59.190Z,87.26
2022-10-01T06:53:27.560Z,87.70
2022-10-01T06:55:54.360Z,86.89
2022-10-01T06:58:23.059Z,87.45
2022-10-01T07:00:50.475Z,87.02
2022-10-01T07:03:19.780Z,87.77
2022-10-01T07:05:47.064Z,87.29
2022-10-01T07:08:14.218Z,87.26
2022-10-01T07:10:41.785Z,87.05
2022-10-01T07:13:13.336Z,88.25
2022-10-01T07:15:40.080Z,88.75
2022-10-01T07:18:09.478Z,89.98
2022-10-01T07:20:39.633Z,91.25
2022-10-01T07:23:11.170Z,92.31
2022-10-01T07:25:39.207Z,92.02
2022-10-01T07:28:07.885Z,92.47
2022-10-01T07:30:34.423Z,92.16
2022-10-01T07:33:00.777Z,94.00
2022-10-01T07:35:28.369Z,94.72
2022-10-01T07:37:55.176Z,95.92
2022-10-01T07:40:21.703Z,97.00
2022-10-01T07:42:56.109Z,98.01
2022-10-01T07:45:23.608Z,98.57
2022-10-01T07:47:58.073Z,99.66
2022-10-01T07:50:26.295Z,99.84
2022-10-01T07:52:57.367Z,99.10
2022-10-01T07:55:26.952Z,99.03
2022-10-01T07:57:55.012Z,98.28
2022-10-01T08:00:23.474Z,98.00
2022-10-01T08:02:51.573Z,97.85
2022-10-01T08:05:20.367Z,98.68
2022-10-01T08:07:48.108Z,99.61
2022-10-01T08:10:15.945Z,100.00
2022-10-01T08:12:42.751Z,99.90
2022-10-01T08:15:11.068Z,100.00
2022-10-01T08:17:40.635Z,100.00
2022-10-01T08:20:08.963Z,100.00
2022-10-01T08:22:39.760Z,100.00
2022-10-01T08:25:08.515Z,100.00
2022-10-01T08:27:35.085Z,100.00
2022-10-01T08:30:01.493Z,100.00
2022-10-01T08:32:28.144Z,100.00
2022-10-01T08:34:59.782Z,100.00
2022-10-01T08:37:27.688Z,100.00
2022-10-01T08:39:55.331Z,100.00
2022-10-01T08:42:39.735Z,100.00
2022-10-01T08:45:14.394Z,100.00
2022-10-01T08:47:46.976Z,100.00
2022-10-01T08:50:13.407Z,100.00
2022-10-01T08:52:52.351Z,100.00
2022-10-01T08:55:25.836Z,100.00
2022-10-01T08:57:56.896Z,100.00
2022-10-01T09:00:23.489Z,100.00
2022-10-01T09:02:52.777Z,100.00
2022-10-01T09:05:28.827Z,100.00
2022-10-01T09:08:43.380Z,100.00
2022-10-01T09:11:23.771Z,100.00
2022-10-01T09:13:57.454Z,100.00
2022-10-01T09:16:42.306Z,100.00
2022-10-01T09:19:56.808Z,100.00
2022-10-01T09:22:49.237Z,100.00
2022-10-01T09:25:24.279Z,100.00
2022-10-01T09:28:03.146Z,100.00
2022-10-01T09:30:31.660Z,100.00
2022-10-01T09:33:12.744Z,100.00
2022-10-01T09:35:45.260Z,100.00
2022-10-01T09:38:14.567Z,100.00
2022-10-01T09:40:57.483Z,100.00
2022-10-01T09:43:28.631Z,100.00
2022-10-01T09:45:55.756Z,100.00
2022-10-01T09:48:44.559Z,100.00
2022-10-01T09:51:17.236Z,100.00
2022-10-01T09:53:52.979Z,100.00
2022-10-01T09:56:27.707Z,100.00
2022-10-01T09:58:59.936Z,100.00
2022-10-01T10:01:42.147Z,100.00
2022-10-01T10:04:09.264Z,100.00
2022-10-01T10:06:35.858Z,100.00
2022-10-01T10:09:02.674Z,100.00
2022-10-01T10:11:32.096Z,100.00
2022-10-01T10:14:03.366Z,100.00
2022-10-01T10:16:34.239Z,100.00
2022-10-01T10:19:04.780Z,100.00
2022-10-01T10:21:34.804Z,100.00
2022-10-01T10:24:04.064Z,100.00
2022-10-01T10:26:33.296Z,100.00
2022-10-01T10:29:02.415Z,100.00
2022-10-01T10:31:42.139Z,100.00
2022-10-01T10:34:16.716Z,100.00
2022-10-01T10:36:45.207Z,100.00
2022-10-01T10:39:29.278Z,100.00
2022-10-01T10:41:56.917Z,100.00
2022-10-01T10:44:26.768Z,100.00
2022-10-01T10:46:54.049Z,100.00
2022-10-01T10:49:29.927Z,100.00
2022-10-01T10:52:00.683Z,100.00
2022-10-01T10:54:37.848Z,100.00
2022-10-01T10:57:23.207Z,100.00
2022-10-01T11:00:01.303Z,100.00
2022-10-01T11:02:30.420Z,94.98
2022-10-01T11:05:11.914Z,92.04
2022-10-01T11:07:40.062Z,79.91
2022-10-01T11:10:42.348Z,79.04
2022-10-01T11:13:53.143Z,83.81
2022-10-01T11:16:29.419Z,76.00
2022-10-01T11:19:21.359Z,72.55
2022-10-01T11:22:25.804Z,68.14
2022-10-01T11:25:18.306Z,63.75
2022-10-01T11:28:11.115Z,61.99
2022-10-01T11:30:58.762Z,57.07
2022-10-01T11:33:31.765Z,52.53
2022-10-01T11:36:07.610Z,50.22
2022-10-01T11:38:46.970Z,47.41
2022-10-01T11:41:39.930Z,48.34
2022-10-01T11:44:25.177Z,48.76
2022-10-01T11:47:09.865Z,46.86
2022-10-01T11:49:54.783Z,47.60
2022-10-01T11:52:48.004Z,47.32
2022-10-01T11:55:48.321Z,43.50
2022-10-01T11:58:52.453Z,45.17
2022-10-01T12:01:28.308Z,47.51
2022-10-01T12:03:54.746Z,52.07
2022-10-01T12:06:33.582Z,56.20
2022-10-01T12:09:16.986Z,57.01
2022-10-01T12:11:57.771Z,56.85
2022-10-01T12:14:44.262Z,56.31
2022-10-01T12:17:20.125Z,56.13
2022-10-01T12:19:51.194Z,54.58
2022-10-01T12:22:25.520Z,50.53
2022-10-01T12:24:53.197Z,44.94
2022-10-01T12:27:53.935Z,49.70
2022-10-01T12:30:23.096Z,46.79
2022-10-01T12:33:01.383Z,46.80
2022-10-01T12:35:33.311Z,42.74
2022-10-01T12:38:21.079Z,46.88
2022-10-01T12:40:53.891Z,42.08
2022-10-01T12:43:29.051Z,43.95
2022-10-01T12:46:27.364Z,47.97
2022-10-01T12:49:24.748Z,51.73
2022-10-01T12:52:19.341Z,55.08
2022-10-01T12:55:12.881Z,56.61
2022-10-01T12:57:57.172Z,57.80
2022-10-01T13:00:27.178Z,59.83
2022-10-01T13:03:24.621Z,61.12
2022-10-01T13:06:26.723Z,62.98
2022-10-01T13:09:15.676Z,63.98
2022-10-01T13:12:05.190Z,64.34
2022-10-01T13:14:33.428Z,64.28
2022-10-01T13:17:06.507Z,65.00
2022-10-01T13:19:54.665Z,65.24
2022-10-01T13:22:47.095Z,66.53
2022-10-01T13:25:38.591Z,68.53
2022-10-01T13:28:29.489Z,70.15
2022-10-01T13:31:00.102Z,72.46
2022-10-01T13:33:29.811Z,73.73
2022-10-01T13:36:02.042Z,74.74
2022-10-01T13:38:37.646Z,76.09
2022-10-01T13:41:27.102Z,76.95
2022-10-01T13:43:58.344Z,77.26
2022-10-01T13:46:31.033Z,76.18
2022-10-01T13:49:07.042Z,77.63
2022-10-01T13:51:35.882Z,78.20
2022-10-01T13:54:03.393Z,79.66
2022-10-01T13:56:37.239Z,79.94
2022-10-01T13:59:20.430Z,78.68
2022-10-01T14:01:46.944Z,79.54
2022-10-01T14:04:33.366Z,80.57
2022-10-01T14:07:25.120Z,79.92
2022-10-01T14:09:58.390Z,80.83
2022-10-01T14:12:51.655Z,81.08
2022-10-01T14:15:38.401Z,79.32
2022-10-01T14:18:11.250Z,79.69
2022-10-01T14:20:54.064Z,79.82
2022-10-01T14:23:36.569Z,78.16
2022-10-01T14:26:23.881Z,76.50
2022-10-01T14:29:17.482Z,75.14
2022-10-01T14:32:16.885Z,75.07
2022-10-01T14:35:20.588Z,74.06
2022-10-01T14:37:46.991Z,75.82
2022-10-01T14:40:21.307Z,74.04
2022-10-01T14:43:02.072Z,74.20
2022-10-01T14:45:29.780Z,73.37
2022-10-01T14:48:07.029Z,72.21
2022-10-01T14:50:35.963Z,73.81
2022-10-01T14:53:06.570Z,73.41
2022-10-01T14:55:34.843Z,73.45
2022-10-01T14:58:01.464Z,73.64
2022-10-01T15:00:32.080Z,74.54
2022-10-01T15:03:07.690Z,73.12
2022-10-01T15:05:35.994Z,73.50
2022-10-01T15:08:11.876Z,73.13
2022-10-01T15:10:53.436Z,73.22
2022-10-01T15:13:24.266Z,73.47
2022-10-01T15:15:51.864Z,72.88
2022-10-01T15:18:18.792Z,72.22
2022-10-01T15:20:56.443Z,73.31
2022-10-01T15:23:25.352Z,73.85
2022-10-01T15:25:54.164Z,73.65
2022-10-01T15:28:31.761Z,74.55
2022-10-01T15:31:00.870Z,74.45
2022-10-01T15:33:32.692Z,74.92
2022-10-01T15:36:02.768Z,75.24
2022-10-01T15:38:31.295Z,75.38
2022-10-01T15:41:19.608Z,75.87
2022-10-01T15:43:47.396Z,76.32
2022-10-01T15:46:25.229Z,77.18
2022-10-01T15:49:24.678Z,78.41
2022-10-01T15:52:19.303Z,78.69
2022-10-01T15:54:46.143Z,78.71
2022-10-01T15:57:21.811Z,78.98
2022-10-01T15:59:51.307Z,79.67
2022-10-01T16:02:23.981Z,80.75
2022-10-01T16:04:56.074Z,80.33
2022-10-01T16:07:29.859Z,81.41
2022-10-01T16:09:59.018Z,81.50
2022-10-01T16:12:27.950Z,82.01
2022-10-01T16:15:06.097Z,82.28
2022-10-01T16:17:37.998Z,81.96
2022-10-01T16:20:36.762Z,81.79
2022-10-01T16:23:40.915Z,81.47
2022-10-01T16:26:27.309Z,81.38
2022-10-01T16:29:24.698Z,81.05
2022-10-01T16:31:51.652Z,81.35
2022-10-01T16:34:19.864Z,81.53
2022-10-01T16:36:46.510Z,81.81
2022-10-01T16:39:15.046Z,82.87
2022-10-01T16:41:44.167Z,82.56
2022-10-01T16:44:13.616Z,83.17
2022-10-01T16:46:41.345Z,82.50
2022-10-01T16:49:13.795Z,82.91
2022-10-01T16:51:40.949Z,83.17
2022-10-01T16:54:22.301Z,83.31
2022-10-01T16:56:50.684Z,82.86
2022-10-01T16:59:17.608Z,83.07
2022-10-01T17:01:45.833Z,82.87
2022-10-01T17:04:13.480Z,82.23
2022-10-01T17:06:40.828Z,82.19
2022-10-01T17:09:07.326Z,81.95
2022-10-01T17:11:34.720Z,81.50
2022-10-01T17:14:02.900Z,82.00
2022-10-01T17:16:29.474Z,82.00
2022-10-01T17:18:56.069Z,82.95
2022-10-01T17:21:22.496Z,83.15
2022-10-01T17:23:53.216Z,82.68
2022-10-01T17:26:20.177Z,82.08
2022-10-01T17:28:46.511Z,82.09
2022-10-01T17:31:17.971Z,82.89
2022-10-01T17:33:45.109Z,82.46
2022-10-01T17:36:11.749Z,82.39
2022-10-01T17:38:40.063Z,82.69
2022-10-01T17:41:07.302Z,82.72
2022-10-01T17:43:33.818Z,83.07
2022-10-01T17:46:01.361Z,83.38
2022-10-01T17:48:29.027Z,82.87
2022-10-01T17:51:03.858Z,83.00
2022-10-01T17:53:35.900Z,82.90
2022-10-01T17:56:08.005Z,82.78
2022-10-01T17:58:34.358Z,82.11
2022-10-01T18:01:01.577Z,83.18
2022-10-01T18:03:28.429Z,83.30
2022-10-01T18:06:03.041Z,83.67
2022-10-01T18:08:53.782Z,83.76
2022-10-01T18:11:17.885Z,83.25
2022-10-01T18:13:44.345Z,83.06
2022-10-01T18:16:18.314Z,83.36
2022-10-01T18:21:35.043Z,83.19
2022-10-01T18:24:04.514Z,84.12
2022-10-01T18:26:31.963Z,84.26
2022-10-01T18:28:58.346Z,84.14
2022-10-01T18:31:27.063Z,84.43
2022-10-01T18:33:59.293Z,84.88
2022-10-01T18:36:41.927Z,84.83
2022-10-01T18:39:26.540Z,84.66
2022-10-01T18:41:53.319Z,84.53
2022-10-01T18:44:20.898Z,84.02
2022-10-01T18:46:50.419Z,84.51
2022-10-01T18:49:36.743Z,84.76
2022-10-01T18:52:27.068Z,84.56
2022-10-01T18:55:07.905Z,84.03
2022-10-01T18:57:58.319Z,84.53
2022-10-01T19:00:28.449Z,84.22
2022-10-01T19:03:15.105Z,84.09
2022-10-01T19:05:59.550Z,84.26
2022-10-01T19:08:43.603Z,84.82
2022-10-01T19:11:18.275Z,84.84
2022-10-01T19:14:08.547Z,85.55
2022-10-01T19:16:56.810Z,86.19
2022-10-01T19:19:45.024Z,86.45
2022-10-01T19:22:48.425Z,86.11
2022-10-01T19:25:35.424Z,86.78
2022-10-01T19:28:34.274Z,86.57
2022-10-01T19:31:14.198Z,86.70
2022-10-01T19:33:50.329Z,87.27
2022-10-01T19:36:30.394Z,87.13
2022-10-01T19:39:06.066Z,86.85
2022-10-01T19:42:06.432Z,87.09
2022-10-01T19:44:58.282Z,86.86
2022-10-01T19:47:32.613Z,86.41
2022-10-01T19:50:06.281Z,86.28
2022-10-01T19:52:38.228Z,86.39
2022-10-01T19:55:14.140Z,87.07
2022-10-01T19:57:43.935Z,87.11
2022-10-01T20:00:17.813Z,87.15
2022-10-01T20:02:52.076Z,87.08
2022-10-01T20:05:48.932Z,87.94
2022-10-01T20:08:33.832Z,87.01
2022-10-01T20:11:06.651Z,86.93
2022-10-01T20:13:48.679Z,87.02
2022-10-01T20:16:21.090Z,86.07
2022-10-01T20:19:08.231Z,87.12
2022-10-01T20:21:45.741Z,86.44
2022-10-01T20:24:46.670Z,86.68
2022-10-01T20:27:40.079Z,85.69
2022-10-01T20:30:10.632Z,85.42
2022-10-01T20:32:57.704Z,86.16
2022-10-01T20:35:36.987Z,86.13
2022-10-01T20:38:09.786Z,86.08
2022-10-01T20:40:49.783Z,86.23
2022-10-01T20:43:21.990Z,86.35
2022-10-01T20:45:51.247Z,85.95
2022-10-01T20:48:27.350Z,85.59
2022-10-01T20:51:01.353Z,85.60
2022-10-01T20:53:56.667Z,85.75
2022-10-01T20:56:32.488Z,85.44
2022-10-01T20:59:10.675Z,85.65
2022-10-01T21:01:42.358Z,85.18
2022-10-01T21:04:19.485Z,85.68
2022-10-01T21:06:48.950Z,85.07
2022-10-01T21:09:15.824Z,84.82
2022-10-01T21:11:53.260Z,85.60
2022-10-01T21:14:30.624Z,85.45
2022-10-01T21:17:08.011Z,85.41
2022-10-01T21:20:12.264Z,85.87
2022-10-01T21:22:56.979Z,86.35
2022-10-01T21:25:47.791Z,85.90
2022-10-01T21:28:35.433Z,85.45
2022-10-01T21:31:08.513Z,85.58
2022-10-01T21:34:02.881Z,85.44
2022-10-01T21:36:52.064Z,85.88
2022-10-01T21:39:31.623Z,85.61
2022-10-01T21:42:15.927Z,85.16
2022-10-01T21:44:48.005Z,84.95
2022-10-01T21:47:19.019Z,85.23
2022-10-01T21:50:03.626Z,85.62
2022-10-01T21:53:02.711Z,85.51
2022-10-01T21:55:55.591Z,85.00
2022-10-01T21:59:04.938Z,84.94
2022-10-01T22:02:04.864Z,85.32
2022-10-01T22:04:47.702Z,85.34
2022-10-01T22:07:32.000Z,84.78
2022-10-01T22:10:16.728Z,83.76
2022-10-01T22:12:48.091Z,84.46
2022-10-01T22:15:28.259Z,84.28
2022-10-01T22:17:57.326Z,83.98
2022-10-01T22:20:29.063Z,85.79
2022-10-01T22:22:59.028Z,87.27
2022-10-01T22:25:27.028Z,88.12
2022-10-01T22:28:05.811Z,89.17
2022-10-01T22:30:37.717Z,88.87
2022-10-01T22:33:20.068Z,89.97
2022-10-01T22:35:56.174Z,89.99
2022-10-01T22:38:32.452Z,90.80
2022-10-01T22:41:31.079Z,91.75
2022-10-01T22:43:57.516Z,91.57
2022-10-01T22:46:45.069Z,91.35
2022-10-01T22:49:53.671Z,91.87
2022-10-01T22:52:41.343Z,91.11
2022-10-01T22:55:14.010Z,90.15
2022-10-01T22:58:10.856Z,90.72
2022-10-01T23:00:45.580Z,89.54
2022-10-01T23:03:28.901Z,89.15
2022-10-01T23:06:11.697Z,88.79
2022-10-01T23:08:58.076Z,89.08
2022-10-01T23:11:32.196Z,89.15
2022-10-01T23:14:23.577Z,89.13
2022-10-01T23:17:06.308Z,89.53
2022-10-01T23:19:52.250Z,90.02
2022-10-01T23:22:41.731Z,90.22
2022-10-01T23:25:40.534Z,90.18
2022-10-01T23:28:19.284Z,89.90
2022-10-01T23:31:04.273Z,90.39
2022-10-01T23:34:05.123Z,91.18
2022-10-01T23:36:39.618Z,91.12
2022-10-01T23:39:33.506Z,91.39
2022-10-01T23:42:31.310Z,91.65
2022-10-01T23:45:16.030Z,92.26
2022-10-01T23:47:55.055Z,92.08
2022-10-01T23:50:35.512Z,92.53
2022-10-01T23:53:11.029Z,92.45
2022-10-01T23:56:13.368Z,93.18
2022-10-01T23:58:50.531Z,92.85
